sensor_id;sensor_type;location;lat;lon;timestamp;pressure;altitude;pressure_sealevel;temperature;humidity
19590;BME280;12231;42.782;23.388;2022-07-29T00:01:05;95709.97;;;20.78;100.00
19590;BME280;12231;42.782;23.388;2022-07-29T00:03:30;95713.47;;;20.87;100.00
19590;BME280;12231;42.782;23.388;2022-07-29T00:05:56;95722.28;;;21.38;100.00
19590;BME280;12231;42.782;23.388;2022-07-29T00:08:21;95725.41;;;21.93;98.61
19590;BME280;12231;42.782;23.388;2022-07-29T00:10:47;95731.28;;;22.29;95.01
19590;BME280;12231;42.782;23.388;2022-07-29T00:13:12;95735.38;;;22.65;92.34
19590;BME280;12231;42.782;23.388;2022-07-29T00:15:38;95729.19;;;23.06;89.94
19590;BME280;12231;42.782;23.388;2022-07-29T00:18:03;95730.34;;;23.28;88.34
19590;BME280;12231;42.782;23.388;2022-07-29T00:20:29;95725.25;;;23.34;87.55
19590;BME280;12231;42.782;23.388;2022-07-29T00:22:54;95724.91;;;23.45;86.10
19590;BME280;12231;42.782;23.388;2022-07-29T00:25:21;95727.19;;;23.16;85.39
19590;BME280;12231;42.782;23.388;2022-07-29T00:27:46;95724.22;;;23.19;86.31
19590;BME280;12231;42.782;23.388;2022-07-29T00:30:12;95722.78;;;23.33;85.91
19590;BME280;12231;42.782;23.388;2022-07-29T00:32:37;95721.31;;;23.46;84.92
19590;BME280;12231;42.782;23.388;2022-07-29T00:35:04;95723.91;;;23.62;83.96
19590;BME280;12231;42.782;23.388;2022-07-29T00:37:48;95715.66;;;23.73;83.19
19590;BME280;12231;42.782;23.388;2022-07-29T00:40:13;95715.63;;;23.81;82.82
19590;BME280;12231;42.782;23.388;2022-07-29T00:42:46;95715.75;;;23.88;82.44
19590;BME280;12231;42.782;23.388;2022-07-29T00:45:12;95715.25;;;23.92;81.97
19590;BME280;12231;42.782;23.388;2022-07-29T00:47:38;95720.69;;;23.99;81.56
19590;BME280;12231;42.782;23.388;2022-07-29T00:50:05;95725.47;;;23.95;81.45
19590;BME280;12231;42.782;23.388;2022-07-29T00:52:31;95738.34;;;23.98;81.31
19590;BME280;12231;42.782;23.388;2022-07-29T00:54:57;95735.00;;;23.96;80.63
19590;BME280;12231;42.782;23.388;2022-07-29T00:57:23;95736.00;;;23.95;80.53
19590;BME280;12231;42.782;23.388;2022-07-29T00:59:48;95719.38;;;23.95;79.88
19590;BME280;12231;42.782;23.388;2022-07-29T01:02:14;95723.47;;;24.05;79.65
19590;BME280;12231;42.782;23.388;2022-07-29T01:04:40;95721.19;;;24.02;79.20
19590;BME280;12231;42.782;23.388;2022-07-29T01:07:06;95717.59;;;23.87;79.47
19590;BME280;12231;42.782;23.388;2022-07-29T01:09:34;95723.38;;;23.75;80.48
19590;BME280;12231;42.782;23.388;2022-07-29T01:12:00;95718.94;;;23.75;80.59
19590;BME280;12231;42.782;23.388;2022-07-29T01:14:27;95717.84;;;23.46;80.59
19590;BME280;12231;42.782;23.388;2022-07-29T01:17:07;95716.00;;;22.98;82.20
19590;BME280;12231;42.782;23.388;2022-07-29T01:30:25;95703.00;;;22.56;87.20
19590;BME280;12231;42.782;23.388;2022-07-29T01:33:00;95701.53;;;22.70;86.30
19590;BME280;12231;42.782;23.388;2022-07-29T01:35:35;95698.09;;;22.85;85.04
19590;BME280;12231;42.782;23.388;2022-07-29T01:38:09;95696.97;;;22.88;83.69
19590;BME280;12231;42.782;23.388;2022-07-29T01:40:43;95692.34;;;22.90;83.57
19590;BME280;12231;42.782;23.388;2022-07-29T01:43:12;95685.44;;;22.97;82.90
19590;BME280;12231;42.782;23.388;2022-07-29T01:45:48;95686.13;;;23.07;82.84
19590;BME280;12231;42.782;23.388;2022-07-29T01:48:24;95684.78;;;23.11;82.09
19590;BME280;12231;42.782;23.388;2022-07-29T01:51:16;95673.47;;;22.86;82.82
19590;BME280;12231;42.782;23.388;2022-07-29T01:54:08;95670.16;;;23.00;82.60
19590;BME280;12231;42.782;23.388;2022-07-29T01:56:37;95678.72;;;23.02;81.60
19590;BME280;12231;42.782;23.388;2022-07-29T01:59:05;95672.97;;;22.99;81.41
19590;BME280;12231;42.782;23.388;2022-07-29T02:01:32;95682.50;;;22.76;81.63
19590;BME280;12231;42.782;23.388;2022-07-29T02:04:03;95681.16;;;22.72;82.19
19590;BME280;12231;42.782;23.388;2022-07-29T02:06:30;95687.66;;;22.44;82.89
19590;BME280;12231;42.782;23.388;2022-07-29T02:08:58;95686.66;;;22.37;83.63
19590;BME280;12231;42.782;23.388;2022-07-29T02:11:25;95687.28;;;22.23;84.24
19590;BME280;12231;42.782;23.388;2022-07-29T02:13:52;95683.78;;;22.06;85.78
19590;BME280;12231;42.782;23.388;2022-07-29T02:16:21;95687.28;;;22.15;85.52
19590;BME280;12231;42.782;23.388;2022-07-29T02:18:49;95685.00;;;22.20;85.56
19590;BME280;12231;42.782;23.388;2022-07-29T02:21:21;95678.75;;;22.29;85.27
19590;BME280;12231;42.782;23.388;2022-07-29T02:23:48;95683.38;;;22.35;84.75
19590;BME280;12231;42.782;23.388;2022-07-29T02:26:16;95684.16;;;22.19;84.81
19590;BME280;12231;42.782;23.388;2022-07-29T02:28:43;95680.28;;;21.64;87.61
19590;BME280;12231;42.782;23.388;2022-07-29T02:31:10;95675.06;;;21.38;89.26
19590;BME280;12231;42.782;23.388;2022-07-29T02:33:37;95673.47;;;21.20;91.58
19590;BME280;12231;42.782;23.388;2022-07-29T02:36:06;95671.16;;;21.42;90.63
19590;BME280;12231;42.782;23.388;2022-07-29T02:38:31;95666.56;;;21.44;89.69
19590;BME280;12231;42.782;23.388;2022-07-29T02:41:42;95673.34;;;21.55;89.21
19590;BME280;12231;42.782;23.388;2022-07-29T02:44:14;95675.31;;;21.79;88.73
19590;BME280;12231;42.782;23.388;2022-07-29T02:46:47;95679.41;;;21.81;87.87
19590;BME280;12231;42.782;23.388;2022-07-29T02:49:38;95674.53;;;21.94;87.33
19590;BME280;12231;42.782;23.388;2022-07-29T02:52:06;95668.97;;;21.63;87.64
19590;BME280;12231;42.782;23.388;2022-07-29T02:57:09;95663.00;;;21.53;89.50
19590;BME280;12231;42.782;23.388;2022-07-29T02:59:36;95664.75;;;21.37;90.38
19590;BME280;12231;42.782;23.388;2022-07-29T03:02:04;95668.13;;;21.29;91.27
19590;BME280;12231;42.782;23.388;2022-07-29T03:04:32;95667.69;;;21.16;91.83
19590;BME280;12231;42.782;23.388;2022-07-29T03:07:00;95664.03;;;21.09;93.33
19590;BME280;12231;42.782;23.388;2022-07-29T03:09:26;95664.03;;;21.09;93.97
19590;BME280;12231;42.782;23.388;2022-07-29T03:11:53;95657.78;;;21.02;95.72
19590;BME280;12231;42.782;23.388;2022-07-29T03:14:20;95655.16;;;20.67;96.77
19590;BME280;12231;42.782;23.388;2022-07-29T03:16:48;95646.78;;;20.81;96.90
19590;BME280;12231;42.782;23.388;2022-07-29T03:19:14;95652.28;;;20.96;96.69
19590;BME280;12231;42.782;23.388;2022-07-29T03:21:40;95652.91;;;21.07;96.77
19590;BME280;12231;42.782;23.388;2022-07-29T03:24:06;95646.00;;;21.06;95.60
19590;BME280;12231;42.782;23.388;2022-07-29T03:26:31;95640.78;;;20.89;96.80
19590;BME280;12231;42.782;23.388;2022-07-29T03:28:57;95636.44;;;20.62;97.36
19590;BME280;12231;42.782;23.388;2022-07-29T03:31:22;95642.47;;;20.55;98.32
19590;BME280;12231;42.782;23.388;2022-07-29T03:33:47;95646.63;;;20.48;100.00
19590;BME280;12231;42.782;23.388;2022-07-29T03:36:13;95640.97;;;20.70;100.00
19590;BME280;12231;42.782;23.388;2022-07-29T03:38:39;95643.44;;;20.71;98.65
19590;BME280;12231;42.782;23.388;2022-07-29T03:41:09;95640.25;;;20.85;99.24
19590;BME280;12231;42.782;23.388;2022-07-29T03:43:37;95648.03;;;20.77;98.20
19590;BME280;12231;42.782;23.388;2022-07-29T03:46:07;95662.22;;;20.49;96.97
19590;BME280;12231;42.782;23.388;2022-07-29T03:48:37;95661.63;;;20.55;98.05
19590;BME280;12231;42.782;23.388;2022-07-29T03:51:05;95660.41;;;20.85;98.06
19590;BME280;12231;42.782;23.388;2022-07-29T03:53:31;95662.78;;;21.13;97.16
19590;BME280;12231;42.782;23.388;2022-07-29T03:55:59;95670.75;;;21.63;94.73
19590;BME280;12231;42.782;23.388;2022-07-29T03:58:27;95681.81;;;22.08;92.24
19590;BME280;12231;42.782;23.388;2022-07-29T04:00:54;95685.38;;;22.49;88.70
19590;BME280;12231;42.782;23.388;2022-07-29T04:03:20;95686.41;;;22.56;87.68
19590;BME280;12231;42.782;23.388;2022-07-29T04:05:58;95680.03;;;22.74;87.82
19590;BME280;12231;42.782;23.388;2022-07-29T04:08:23;95677.72;;;22.95;86.99
19590;BME280;12231;42.782;23.388;2022-07-29T04:10:48;95675.06;;;23.20;84.44
19590;BME280;12231;42.782;23.388;2022-07-29T04:13:15;95679.78;;;23.72;82.75
19590;BME280;12231;42.782;23.388;2022-07-29T04:15:40;95677.63;;;24.22;80.63
19590;BME280;12231;42.782;23.388;2022-07-29T04:18:05;95688.63;;;24.87;77.34
19590;BME280;12231;42.782;23.388;2022-07-29T04:20:31;95679.50;;;25.35;74.83
19590;BME280;12231;42.782;23.388;2022-07-29T04:22:56;95683.06;;;25.42;73.21
19590;BME280;12231;42.782;23.388;2022-07-29T04:25:22;95678.44;;;25.21;73.98
19590;BME280;12231;42.782;23.388;2022-07-29T04:27:48;95678.97;;;24.80;75.64
19590;BME280;12231;42.782;23.388;2022-07-29T04:30:25;95678.25;;;24.86;74.94
19590;BME280;12231;42.782;23.388;2022-07-29T04:32:51;95676.97;;;25.04;75.08
19590;BME280;12231;42.782;23.388;2022-07-29T04:35:18;95672.19;;;25.00;75.05
19590;BME280;12231;42.782;23.388;2022-07-29T04:37:43;95675.63;;;25.75;73.22
19590;BME280;12231;42.782;23.388;2022-07-29T04:40:09;95678.69;;;26.51;71.36
19590;BME280;12231;42.782;23.388;2022-07-29T04:42:34;95673.81;;;27.32;67.81
19590;BME280;12231;42.782;23.388;2022-07-29T04:45:00;95671.50;;;28.18;64.36
19590;BME280;12231;42.782;23.388;2022-07-29T04:47:25;95675.00;;;28.73;62.28
19590;BME280;12231;42.782;23.388;2022-07-29T04:49:51;95680.00;;;29.34;60.15
19590;BME280;12231;42.782;23.388;2022-07-29T04:52:16;95677.53;;;29.39;60.97
19590;BME280;12231;42.782;23.388;2022-07-29T04:54:42;95682.81;;;29.98;59.62
19590;BME280;12231;42.782;23.388;2022-07-29T04:57:07;95688.09;;;30.18;58.16
19590;BME280;12231;42.782;23.388;2022-07-29T04:59:32;95685.88;;;30.65;56.79
19590;BME280;12231;42.782;23.388;2022-07-29T05:01:58;95683.59;;;31.38;54.06
19590;BME280;12231;42.782;23.388;2022-07-29T05:04:23;95682.22;;;31.78;53.54
19590;BME280;12231;42.782;23.388;2022-07-29T05:06:49;95682.66;;;32.36;50.90
19590;BME280;12231;42.782;23.388;2022-07-29T05:09:14;95673.47;;;32.97;49.21
19590;BME280;12231;42.782;23.388;2022-07-29T05:11:40;95685.25;;;33.08;50.65
19590;BME280;12231;42.782;23.388;2022-07-29T05:14:05;95673.50;;;33.73;47.97
19590;BME280;12231;42.782;23.388;2022-07-29T05:16:30;95686.69;;;33.98;46.71
19590;BME280;12231;42.782;23.388;2022-07-29T05:18:56;95685.25;;;33.84;46.50
19590;BME280;12231;42.782;23.388;2022-07-29T05:21:21;95684.72;;;35.24;43.71
19590;BME280;12231;42.782;23.388;2022-07-29T05:23:47;95689.03;;;35.86;42.17
19590;BME280;12231;42.782;23.388;2022-07-29T05:26:12;95687.84;;;35.82;41.34
19590;BME280;12231;42.782;23.388;2022-07-29T05:28:37;95682.94;;;36.50;40.51
19590;BME280;12231;42.782;23.388;2022-07-29T05:31:03;95687.94;;;36.42;41.13
19590;BME280;12231;42.782;23.388;2022-07-29T05:33:28;95685.88;;;36.92;39.74
19590;BME280;12231;42.782;23.388;2022-07-29T05:35:54;95688.84;;;34.35;43.80
19590;BME280;12231;42.782;23.388;2022-07-29T05:38:19;95687.41;;;35.24;42.86
19590;BME280;12231;42.782;23.388;2022-07-29T05:40:44;95685.09;;;34.88;44.39
19590;BME280;12231;42.782;23.388;2022-07-29T05:43:10;95693.56;;;34.68;42.21
19590;BME280;12231;42.782;23.388;2022-07-29T05:45:35;95692.09;;;33.04;45.13
19590;BME280;12231;42.782;23.388;2022-07-29T05:48:01;95689.59;;;33.96;44.32
19590;BME280;12231;42.782;23.388;2022-07-29T05:50:26;95696.94;;;32.95;46.22
19590;BME280;12231;42.782;23.388;2022-07-29T05:52:52;95690.03;;;33.70;45.33
19590;BME280;12231;42.782;23.388;2022-07-29T05:55:17;95696.31;;;33.23;45.97
19590;BME280;12231;42.782;23.388;2022-07-29T05:57:43;95698.50;;;33.56;43.65
19590;BME280;12231;42.782;23.388;2022-07-29T06:00:10;95693.47;;;33.06;46.12
19590;BME280;12231;42.782;23.388;2022-07-29T06:02:36;95696.00;;;34.07;42.90
19590;BME280;12231;42.782;23.388;2022-07-29T06:05:02;95691.19;;;33.21;43.46
19590;BME280;12231;42.782;23.388;2022-07-29T06:07:27;95699.38;;;32.79;45.19
19590;BME280;12231;42.782;23.388;2022-07-29T06:09:53;95706.88;;;31.98;44.60
19590;BME280;12231;42.782;23.388;2022-07-29T06:12:18;95697.72;;;31.94;45.45
19590;BME280;12231;42.782;23.388;2022-07-29T06:14:44;95697.38;;;33.22;42.99
19590;BME280;12231;42.782;23.388;2022-07-29T06:17:10;95694.91;;;33.09;42.50
19590;BME280;12231;42.782;23.388;2022-07-29T06:19:37;95697.72;;;33.55;42.34
19590;BME280;12231;42.782;23.388;2022-07-29T06:22:02;95696.25;;;33.00;42.18
19590;BME280;12231;42.782;23.388;2022-07-29T06:24:28;95703.13;;;32.24;43.91
19590;BME280;12231;42.782;23.388;2022-07-29T06:26:53;95697.16;;;32.94;43.65
19590;BME280;12231;42.782;23.388;2022-07-29T06:29:19;95688.78;;;32.72;42.09
19590;BME280;12231;42.782;23.388;2022-07-29T06:31:44;95700.09;;;31.53;44.20
19590;BME280;12231;42.782;23.388;2022-07-29T06:34:10;95697.13;;;32.28;44.06
19590;BME280;12231;42.782;23.388;2022-07-29T06:36:36;95693.34;;;32.18;43.78
19590;BME280;12231;42.782;23.388;2022-07-29T06:39:04;95698.81;;;32.23;43.47
19590;BME280;12231;42.782;23.388;2022-07-29T06:41:30;95690.28;;;32.68;42.40
19590;BME280;12231;42.782;23.388;2022-07-29T06:43:56;95696.22;;;32.16;42.50
19590;BME280;12231;42.782;23.388;2022-07-29T06:46:21;95684.16;;;32.50;42.45
19590;BME280;12231;42.782;23.388;2022-07-29T06:48:47;95685.50;;;32.59;40.13
19590;BME280;12231;42.782;23.388;2022-07-29T06:51:13;95691.16;;;30.78;43.60
19590;BME280;12231;42.782;23.388;2022-07-29T06:53:39;95701.03;;;30.65;46.06
19590;BME280;12231;42.782;23.388;2022-07-29T06:56:06;95700.97;;;30.21;46.50
19590;BME280;12231;42.782;23.388;2022-07-29T06:58:34;95695.66;;;30.78;45.79
19590;BME280;12231;42.782;23.388;2022-07-29T07:01:03;95701.44;;;31.06;44.99
19590;BME280;12231;42.782;23.388;2022-07-29T07:03:29;95692.94;;;30.40;46.28
19590;BME280;12231;42.782;23.388;2022-07-29T07:05:55;95695.25;;;30.17;48.45
19590;BME280;12231;42.782;23.388;2022-07-29T07:08:21;95691.63;;;31.00;45.44
19590;BME280;12231;42.782;23.388;2022-07-29T07:10:47;95688.56;;;30.59;46.71
19590;BME280;12231;42.782;23.388;2022-07-29T07:13:13;95692.13;;;30.84;45.63
19590;BME280;12231;42.782;23.388;2022-07-29T07:15:39;95691.09;;;31.16;44.74
19590;BME280;12231;42.782;23.388;2022-07-29T07:18:05;95684.47;;;31.56;44.37
19590;BME280;12231;42.782;23.388;2022-07-29T07:20:32;95674.13;;;32.63;42.31
19590;BME280;12231;42.782;23.388;2022-07-29T07:22:58;95679.47;;;32.09;44.00
19590;BME280;12231;42.782;23.388;2022-07-29T07:25:23;95676.66;;;32.88;41.91
19590;BME280;12231;42.782;23.388;2022-07-29T07:27:49;95682.41;;;32.91;42.46
19590;BME280;12231;42.782;23.388;2022-07-29T07:30:15;95674.44;;;33.03;42.17
19590;BME280;12231;42.782;23.388;2022-07-29T07:32:40;95680.66;;;32.13;43.02
19590;BME280;12231;42.782;23.388;2022-07-29T07:35:07;95671.41;;;32.52;43.94
19590;BME280;12231;42.782;23.388;2022-07-29T07:37:33;95668.41;;;33.07;42.53
19590;BME280;12231;42.782;23.388;2022-07-29T07:39:59;95674.09;;;32.81;41.89
19590;BME280;12231;42.782;23.388;2022-07-29T07:42:25;95673.75;;;31.87;43.09
19590;BME280;12231;42.782;23.388;2022-07-29T07:44:50;95665.56;;;32.07;44.92
19590;BME280;12231;42.782;23.388;2022-07-29T07:47:16;95656.16;;;33.00;42.86
19590;BME280;12231;42.782;23.388;2022-07-29T07:49:51;95665.78;;;32.71;43.02
19590;BME280;12231;42.782;23.388;2022-07-29T07:52:20;95673.25;;;32.15;43.72
19590;BME280;12231;42.782;23.388;2022-07-29T07:54:45;95664.28;;;32.46;41.78
19590;BME280;12231;42.782;23.388;2022-07-29T07:57:11;95658.59;;;32.72;42.63
19590;BME280;12231;42.782;23.388;2022-07-29T07:59:37;95654.53;;;34.21;40.19
19590;BME280;12231;42.782;23.388;2022-07-29T08:02:03;95660.91;;;33.27;41.26
19590;BME280;12231;42.782;23.388;2022-07-29T08:04:29;95662.34;;;33.12;42.09
19590;BME280;12231;42.782;23.388;2022-07-29T08:06:56;95663.41;;;33.11;42.08
19590;BME280;12231;42.782;23.388;2022-07-29T08:09:22;95659.81;;;32.58;43.04
19590;BME280;12231;42.782;23.388;2022-07-29T08:11:47;95662.69;;;33.04;41.77
19590;BME280;12231;42.782;23.388;2022-07-29T08:14:13;95662.81;;;33.09;42.68
19590;BME280;12231;42.782;23.388;2022-07-29T08:16:39;95655.44;;;32.63;43.42
19590;BME280;12231;42.782;23.388;2022-07-29T08:19:05;95652.06;;;32.68;43.83
19590;BME280;12231;42.782;23.388;2022-07-29T08:21:31;95661.75;;;32.15;43.79
19590;BME280;12231;42.782;23.388;2022-07-29T08:23:56;95659.31;;;31.95;44.80
19590;BME280;12231;42.782;23.388;2022-07-29T08:26:42;95651.78;;;32.58;43.37
19590;BME280;12231;42.782;23.388;2022-07-29T08:29:08;95654.78;;;32.79;42.66
19590;BME280;12231;42.782;23.388;2022-07-29T08:31:33;95640.81;;;33.48;42.14
19590;BME280;12231;42.782;23.388;2022-07-29T08:33:59;95643.66;;;33.12;42.55
19590;BME280;12231;42.782;23.388;2022-07-29T08:36:25;95639.59;;;33.09;41.34
19590;BME280;12231;42.782;23.388;2022-07-29T08:38:51;95645.88;;;33.26;40.83
19590;BME280;12231;42.782;23.388;2022-07-29T08:41:18;95646.41;;;33.05;42.94
19590;BME280;12231;42.782;23.388;2022-07-29T08:43:44;95643.16;;;33.79;41.42
19590;BME280;12231;42.782;23.388;2022-07-29T08:46:09;95640.81;;;33.48;42.35
19590;BME280;12231;42.782;23.388;2022-07-29T08:48:36;95632.63;;;33.31;41.50
19590;BME280;12231;42.782;23.388;2022-07-29T08:51:01;95642.09;;;33.69;41.03
19590;BME280;12231;42.782;23.388;2022-07-29T08:53:28;95645.13;;;33.72;40.67
19590;BME280;12231;42.782;23.388;2022-07-29T08:55:54;95649.16;;;33.28;42.30
19590;BME280;12231;42.782;23.388;2022-07-29T08:58:21;95633.78;;;33.12;42.76
19590;BME280;12231;42.782;23.388;2022-07-29T09:00:51;95635.50;;;33.07;42.97
19590;BME280;12231;42.782;23.388;2022-07-29T09:03:23;95643.97;;;33.45;40.31
19590;BME280;12231;42.782;23.388;2022-07-29T09:05:49;95636.97;;;33.67;42.26
19590;BME280;12231;42.782;23.388;2022-07-29T09:08:16;95637.34;;;33.82;41.32
19590;BME280;12231;42.782;23.388;2022-07-29T09:10:42;95633.47;;;34.64;40.08
19590;BME280;12231;42.782;23.388;2022-07-29T09:13:08;95631.09;;;34.39;38.48
19590;BME280;12231;42.782;23.388;2022-07-29T09:15:34;95635.28;;;34.47;39.76
19590;BME280;12231;42.782;23.388;2022-07-29T09:17:59;95631.09;;;34.67;38.06
19590;BME280;12231;42.782;23.388;2022-07-29T09:20:26;95637.34;;;33.71;39.05
19590;BME280;12231;42.782;23.388;2022-07-29T09:23:12;95623.00;;;34.63;39.11
19590;BME280;12231;42.782;23.388;2022-07-29T09:25:39;95620.03;;;35.20;37.32
19590;BME280;12231;42.782;23.388;2022-07-29T09:28:15;95618.00;;;34.83;37.92
19590;BME280;12231;42.782;23.388;2022-07-29T09:30:58;95609.28;;;35.70;35.48
19590;BME280;12231;42.782;23.388;2022-07-29T09:33:31;95629.28;;;34.85;38.06
19590;BME280;12231;42.782;23.388;2022-07-29T09:36:05;95618.47;;;35.08;36.78
19590;BME280;12231;42.782;23.388;2022-07-29T09:38:31;95621.41;;;33.99;39.34
19590;BME280;12231;42.782;23.388;2022-07-29T09:40:59;95612.13;;;33.55;39.46
19590;BME280;12231;42.782;23.388;2022-07-29T09:43:25;95614.50;;;33.80;37.61
19590;BME280;12231;42.782;23.388;2022-07-29T09:45:51;95615.34;;;33.80;36.90
19590;BME280;12231;42.782;23.388;2022-07-29T09:48:22;95615.22;;;33.29;36.73
19590;BME280;12231;42.782;23.388;2022-07-29T09:50:47;95610.63;;;32.95;37.67
19590;BME280;12231;42.782;23.388;2022-07-29T09:53:36;95612.06;;;33.20;37.45
19590;BME280;12231;42.782;23.388;2022-07-29T09:56:04;95606.41;;;33.52;37.26
19590;BME280;12231;42.782;23.388;2022-07-29T09:58:30;95599.19;;;33.52;36.84
19590;BME280;12231;42.782;23.388;2022-07-29T10:00:58;95600.56;;;33.31;36.84
19590;BME280;12231;42.782;23.388;2022-07-29T10:03:24;95613.75;;;32.62;36.69
19590;BME280;12231;42.782;23.388;2022-07-29T10:06:10;95602.19;;;33.21;36.79
19590;BME280;12231;42.782;23.388;2022-07-29T10:08:37;95597.13;;;32.90;37.91
19590;BME280;12231;42.782;23.388;2022-07-29T10:11:13;95593.25;;;33.38;36.91
19590;BME280;12231;42.782;23.388;2022-07-29T10:13:41;95587.66;;;33.28;35.98
19590;BME280;12231;42.782;23.388;2022-07-29T10:16:07;95585.69;;;33.24;36.79
19590;BME280;12231;42.782;23.388;2022-07-29T10:18:33;95582.16;;;32.71;37.66
19590;BME280;12231;42.782;23.388;2022-07-29T10:21:00;95585.34;;;32.50;38.06
19590;BME280;12231;42.782;23.388;2022-07-29T10:23:27;95579.34;;;32.66;37.79
19590;BME280;12231;42.782;23.388;2022-07-29T10:25:53;95587.84;;;32.15;36.93
19590;BME280;12231;42.782;23.388;2022-07-29T10:28:19;95572.16;;;32.07;37.46
19590;BME280;12231;42.782;23.388;2022-07-29T10:30:45;95580.81;;;32.02;38.48
19590;BME280;12231;42.782;23.388;2022-07-29T10:33:15;95567.41;;;31.91;37.14
19590;BME280;12231;42.782;23.388;2022-07-29T10:38:42;95564.06;;;31.77;38.12
19590;BME280;12231;42.782;23.388;2022-07-29T10:43:57;95564.13;;;31.71;38.96
19590;BME280;12231;42.782;23.388;2022-07-29T10:46:23;95558.94;;;31.76;38.20
19590;BME280;12231;42.782;23.388;2022-07-29T10:52:14;95554.13;;;32.02;38.09
19590;BME280;12231;42.782;23.388;2022-07-29T10:54:44;95547.59;;;31.80;38.00
19590;BME280;12231;42.782;23.388;2022-07-29T10:57:30;95533.53;;;31.91;37.91
19590;BME280;12231;42.782;23.388;2022-07-29T11:05:07;95544.50;;;31.83;40.05
19590;BME280;12231;42.782;23.388;2022-07-29T11:07:36;95528.69;;;32.18;40.89
19590;BME280;12231;42.782;23.388;2022-07-29T11:15:06;95527.22;;;32.04;40.31
19590;BME280;12231;42.782;23.388;2022-07-29T11:23:29;95531.13;;;32.38;39.68
19590;BME280;12231;42.782;23.388;2022-07-29T11:29:05;95518.28;;;31.98;40.99
19590;BME280;12231;42.782;23.388;2022-07-29T11:31:42;95507.16;;;32.31;41.18
19590;BME280;12231;42.782;23.388;2022-07-29T11:34:27;95510.50;;;32.27;40.24
19590;BME280;12231;42.782;23.388;2022-07-29T11:37:23;95509.88;;;32.43;40.62
19590;BME280;12231;42.782;23.388;2022-07-29T11:45:00;95517.19;;;32.18;39.63
19590;BME280;12231;42.782;23.388;2022-07-29T11:47:27;95506.19;;;32.26;39.76
19590;BME280;12231;42.782;23.388;2022-07-29T11:49:54;95514.25;;;32.78;39.18
19590;BME280;12231;42.782;23.388;2022-07-29T11:52:21;95501.44;;;32.57;38.77
19590;BME280;12231;42.782;23.388;2022-07-29T11:54:48;95491.22;;;32.66;39.30
19590;BME280;12231;42.782;23.388;2022-07-29T11:57:18;95494.16;;;32.76;37.40
19590;BME280;12231;42.782;23.388;2022-07-29T11:59:45;95493.25;;;32.82;38.75
19590;BME280;12231;42.782;23.388;2022-07-29T12:02:13;95494.44;;;33.20;38.97
19590;BME280;12231;42.782;23.388;2022-07-29T12:07:15;95481.03;;;32.86;37.26
19590;BME280;12231;42.782;23.388;2022-07-29T12:09:49;95482.81;;;32.92;38.70
19590;BME280;12231;42.782;23.388;2022-07-29T12:12:16;95491.41;;;33.40;38.02
19590;BME280;12231;42.782;23.388;2022-07-29T12:14:42;95477.78;;;33.65;36.43
19590;BME280;12231;42.782;23.388;2022-07-29T12:17:34;95481.44;;;33.12;37.14
19590;BME280;12231;42.782;23.388;2022-07-29T12:20:02;95482.09;;;33.31;36.34
19590;BME280;12231;42.782;23.388;2022-07-29T12:22:30;95480.59;;;33.35;36.19
19590;BME280;12231;42.782;23.388;2022-07-29T12:25:01;95481.56;;;33.41;36.35
19590;BME280;12231;42.782;23.388;2022-07-29T12:27:27;95476.88;;;33.24;36.96
19590;BME280;12231;42.782;23.388;2022-07-29T12:30:01;95480.47;;;33.18;35.55
19590;BME280;12231;42.782;23.388;2022-07-29T12:32:42;95470.97;;;33.11;36.36
19590;BME280;12231;42.782;23.388;2022-07-29T12:35:17;95474.75;;;33.38;36.22
19590;BME280;12231;42.782;23.388;2022-07-29T12:37:45;95460.28;;;33.22;36.72
19590;BME280;12231;42.782;23.388;2022-07-29T12:40:14;95457.03;;;32.97;37.66
19590;BME280;12231;42.782;23.388;2022-07-29T12:43:04;95478.38;;;33.32;36.47
19590;BME280;12231;42.782;23.388;2022-07-29T12:45:30;95449.81;;;33.21;36.04
19590;BME280;12231;42.782;23.388;2022-07-29T12:47:56;95462.00;;;33.05;35.95
19590;BME280;12231;42.782;23.388;2022-07-29T12:50:22;95462.72;;;33.01;36.34
19590;BME280;12231;42.782;23.388;2022-07-29T12:52:47;95454.94;;;33.11;37.06
19590;BME280;12231;42.782;23.388;2022-07-29T12:55:13;95457.00;;;33.20;36.48
19590;BME280;12231;42.782;23.388;2022-07-29T12:57:48;95457.72;;;33.27;36.32
19590;BME280;12231;42.782;23.388;2022-07-29T13:00:16;95447.22;;;33.49;36.11
19590;BME280;12231;42.782;23.388;2022-07-29T13:02:42;95435.53;;;33.67;36.04
19590;BME280;12231;42.782;23.388;2022-07-29T13:05:09;95436.94;;;33.69;36.58
19590;BME280;12231;42.782;23.388;2022-07-29T13:07:36;95428.31;;;33.67;36.61
19590;BME280;12231;42.782;23.388;2022-07-29T13:10:17;95429.91;;;33.52;36.62
19590;BME280;12231;42.782;23.388;2022-07-29T13:13:21;95436.66;;;33.43;37.80
19590;BME280;12231;42.782;23.388;2022-07-29T13:16:05;95426.50;;;33.56;36.17
19590;BME280;12231;42.782;23.388;2022-07-29T13:18:33;95424.81;;;33.15;36.43
19590;BME280;12231;42.782;23.388;2022-07-29T13:21:14;95416.88;;;33.32;37.15
19590;BME280;12231;42.782;23.388;2022-07-29T13:23:40;95419.94;;;33.12;36.39
19590;BME280;12231;42.782;23.388;2022-07-29T13:26:07;95421.06;;;33.28;36.66
19590;BME280;12231;42.782;23.388;2022-07-29T13:28:33;95413.19;;;33.10;38.02
19590;BME280;12231;42.782;23.388;2022-07-29T13:30:59;95412.06;;;33.06;36.78
19590;BME280;12231;42.782;23.388;2022-07-29T13:33:27;95412.53;;;32.91;37.32
19590;BME280;12231;42.782;23.388;2022-07-29T13:35:52;95412.06;;;33.06;36.06
19590;BME280;12231;42.782;23.388;2022-07-29T13:38:18;95404.97;;;33.00;37.07
19590;BME280;12231;42.782;23.388;2022-07-29T13:40:44;95414.81;;;33.22;36.95
19590;BME280;12231;42.782;23.388;2022-07-29T13:43:10;95410.13;;;33.29;35.62
19590;BME280;12231;42.782;23.388;2022-07-29T13:45:36;95410.50;;;33.21;37.35